createdAt,value
2022-11-12T00:01:41.968Z,101340.09
2022-11-12T00:04:15.677Z,101339.09
2022-11-12T00:06:49.916Z,101337.59
2022-11-12T00:09:22.828Z,101332.81
2022-11-12T00:11:55.672Z,101331.59
2022-11-12T00:14:29.085Z,101339.28
2022-11-12T00:17:01.882Z,101339.28
2022-11-12T00:19:35.569Z,101342.00
2022-11-12T00:22:10.335Z,101341.00
2022-11-12T00:24:43.329Z,101343.38
2022-11-12T00:27:17.225Z,101344.75
2022-11-12T00:29:50.981Z,101346.78
2022-11-12T00:32:23.875Z,101349.50
2022-11-12T00:34:59.236Z,101347.47
2022-11-12T00:37:35.603Z,101353.97
2022-11-12T00:40:10.116Z,101358.53
2022-11-12T00:42:43.819Z,101360.06
2022-11-12T00:45:17.621Z,101352.72
2022-11-12T00:47:51.141Z,101354.44
2022-11-12T00:50:25.094Z,101348.16
2022-11-12T00:52:59.368Z,101361.94
2022-11-12T00:55:33.104Z,101354.28
2022-11-12T00:58:05.939Z,101347.81
2022-11-12T01:00:39.808Z,101354.25
2022-11-12T01:03:12.700Z,101347.28
2022-11-12T01:05:45.944Z,101355.44
2022-11-12T01:08:20.130Z,101358.69
2022-11-12T01:10:52.936Z,101350.88
2022-11-12T01:13:25.772Z,101366.38
2022-11-12T01:15:58.616Z,101368.56
2022-11-12T01:18:32.306Z,101368.19
2022-11-12T01:21:08.177Z,101370.47
2022-11-12T01:23:43.770Z,101372.47
2022-11-12T01:26:19.905Z,101375.53
2022-11-12T01:28:53.472Z,101375.75
2022-11-12T01:31:29.508Z,101373.53
2022-11-12T01:34:05.160Z,101364.78
2022-11-12T01:36:40.976Z,101364.16
2022-11-12T01:39:16.123Z,101366.69
2022-11-12T01:41:49.883Z,101369.97
2022-11-12T01:44:24.892Z,101362.28
2022-11-12T01:47:03.307Z,101368.25
2022-11-12T01:49:47.237Z,101363.13
2022-11-12T01:52:29.527Z,101362.13
2022-11-12T01:55:08.603Z,101367.41
2022-11-12T01:57:48.629Z,101369.94
2022-11-12T02:00:21.618Z,101373.38
2022-11-12T02:02:58.722Z,101363.13
2022-11-12T02:05:32.725Z,101368.28
2022-11-12T02:08:11.418Z,101362.81
2022-11-12T02:10:46.201Z,101363.31
2022-11-12T02:13:38.057Z,101359.06
2022-11-12T02:16:12.823Z,101359.03
2022-11-12T02:18:46.332Z,101357.84
2022-11-12T02:21:22.588Z,101355.28
2022-11-12T02:24:00.360Z,101354.97
2022-11-12T02:26:36.503Z,101361.28
2022-11-12T02:29:10.301Z,101351.91
2022-11-12T02:31:43.863Z,101351.91
2022-11-12T02:34:17.610Z,101348.31
2022-11-12T02:36:51.830Z,101344.91
2022-11-12T02:39:25.610Z,101339.59
2022-11-12T02:41:59.345Z,101342.69
2022-11-12T02:44:33.644Z,101340.25
2022-11-12T02:47:06.633Z,101334.00
2022-11-12T02:49:39.484Z,101337.91
2022-11-12T02:52:14.756Z,101323.56
2022-11-12T02:54:47.596Z,101329.03
2022-11-12T02:57:20.431Z,101319.06
2022-11-12T02:59:53.287Z,101320.09
2022-11-12T03:02:26.341Z,101322.16
2022-11-12T03:04:59.186Z,101322.53
2022-11-12T03:07:33.355Z,101326.06
2022-11-12T03:10:07.596Z,101322.66
2022-11-12T03:12:40.438Z,101313.81
2022-11-12T03:15:14.106Z,101324.72
2022-11-12T03:17:47.062Z,101326.06
2022-11-12T03:20:21.250Z,101323.56
2022-11-12T03:23:01.589Z,101324.16
2022-11-12T03:25:36.723Z,101325.03
2022-11-12T03:28:11.980Z,101312.94
2022-11-12T03:30:46.728Z,101317.19
2022-11-12T03:33:20.354Z,101303.03
2022-11-12T03:35:53.469Z,101310.50
2022-11-12T03:38:28.258Z,101306.06
2022-11-12T03:41:02.190Z,101308.66
2022-11-12T03:43:35.636Z,101302.50
2022-11-12T03:46:08.487Z,101297.69
2022-11-12T03:48:41.284Z,101296.84
2022-11-12T03:51:16.408Z,101295.00
2022-11-12T03:53:51.485Z,101296.19
2022-11-12T03:56:25.446Z,101290.38
2022-11-12T03:58:59.001Z,101295.31
2022-11-12T04:01:31.922Z,101293.75
2022-11-12T04:04:05.713Z,101290.50
2022-11-12T04:06:56.165Z,101303.47
2022-11-12T04:09:31.218Z,101297.00
2022-11-12T04:12:24.832Z,101303.66
2022-11-12T04:14:56.623Z,101301.06
2022-11-12T04:17:47.951Z,101295.13
2022-11-12T04:20:38.621Z,101292.56
2022-11-12T04:23:12.315Z,101283.38
2022-11-12T04:26:04.872Z,101285.09
2022-11-12T04:28:37.671Z,101285.63
2022-11-12T04:31:09.479Z,101290.28
2022-11-12T04:33:42.377Z,101278.53
2022-11-12T04:36:16.199Z,101283.22
2022-11-12T04:38:49.044Z,101293.69
2022-11-12T04:41:41.402Z,101282.31
2022-11-12T04:44:31.805Z,101280.28
2022-11-12T04:47:04.740Z,101290.44
2022-11-12T04:49:37.574Z,101294.00
2022-11-12T04:52:11.363Z,101293.53
2022-11-12T04:54:45.553Z,101293.25
2022-11-12T04:57:21.210Z,101287.66
2022-11-12T04:59:55.092Z,101296.50
2022-11-12T05:02:28.707Z,101300.56
2022-11-12T05:05:02.499Z,101304.19
2022-11-12T05:07:36.004Z,101305.16
2022-11-12T05:10:10.147Z,101309.94
2022-11-12T05:12:45.495Z,101313.16
2022-11-12T05:15:19.413Z,101311.97
2022-11-12T05:17:52.549Z,101313.00
2022-11-12T05:20:26.471Z,101306.28
2022-11-12T05:23:06.690Z,101308.84
2022-11-12T05:25:41.220Z,101312.91
2022-11-12T05:28:15.400Z,101312.75
2022-11-12T05:30:49.784Z,101312.31
2022-11-12T05:33:22.793Z,101312.09
2022-11-12T05:35:57.558Z,101315.88
2022-11-12T05:38:31.103Z,101316.06
2022-11-12T05:41:04.763Z,101313.19
2022-11-12T05:43:39.033Z,101309.09
2022-11-12T05:46:12.750Z,101318.63
2022-11-12T05:48:46.268Z,101315.72
2022-11-12T05:51:20.249Z,101313.31
2022-11-12T05:53:53.756Z,101320.50
2022-11-12T05:56:27.358Z,101308.25
2022-11-12T05:59:02.838Z,101309.59
2022-11-12T06:01:44.035Z,101308.59
2022-11-12T06:04:17.753Z,101303.72
2022-11-12T06:06:50.594Z,101298.06
2022-11-12T06:09:23.423Z,101294.47
2022-11-12T06:11:57.279Z,101298.59
2022-11-12T06:14:32.051Z,101299.78
2022-11-12T06:17:05.146Z,101297.22
2022-11-12T06:19:37.947Z,101287.34
2022-11-12T06:22:11.610Z,101290.69
2022-11-12T06:24:44.413Z,101300.56
2022-11-12T06:27:18.239Z,101304.09
2022-11-12T06:29:52.925Z,101305.84
2022-11-12T06:32:26.547Z,101307.44
2022-11-12T06:35:00.126Z,101312.03
2022-11-12T06:37:33.038Z,101318.19
2022-11-12T06:40:07.081Z,101320.22
2022-11-12T06:42:40.681Z,101325.41
2022-11-12T06:45:15.786Z,101325.88
2022-11-12T06:47:49.181Z,101328.47
2022-11-12T06:50:22.016Z,101317.59
2022-11-12T06:52:59.451Z,101316.91
2022-11-12T06:55:32.939Z,101315.91
2022-11-12T06:58:06.683Z,101327.97
2022-11-12T07:00:41.130Z,101338.94
2022-11-12T07:03:22.946Z,101330.47
2022-11-12T07:05:56.579Z,101333.38
2022-11-12T07:08:30.423Z,101335.75
2022-11-12T07:11:04.545Z,101325.63
2022-11-12T07:13:38.755Z,101316.44
2022-11-12T07:16:14.140Z,101330.56
2022-11-12T07:18:48.988Z,101324.94
2022-11-12T07:21:23.031Z,101324.44
2022-11-12T07:23:56.712Z,101322.56
2022-11-12T07:26:29.574Z,101328.88
2022-11-12T07:29:03.210Z,101328.00
2022-11-12T07:31:38.247Z,101324.97
2022-11-12T07:34:12.220Z,101320.19
2022-11-12T07:36:45.900Z,101327.00
2022-11-12T07:39:19.790Z,101327.38
2022-11-12T07:41:53.443Z,101331.28
2022-11-12T07:44:27.245Z,101332.31
2022-11-12T07:47:02.335Z,101331.09
2022-11-12T07:49:36.184Z,101326.31
2022-11-12T07:52:10.559Z,101326.16
2022-11-12T07:54:44.236Z,101327.19
2022-11-12T07:57:17.138Z,101324.81
2022-11-12T07:59:50.044Z,101322.25
2022-11-12T08:02:24.220Z,101321.91
2022-11-12T08:04:57.932Z,101317.97
2022-11-12T08:07:31.563Z,101312.53
2022-11-12T08:10:05.535Z,101303.31
2022-11-12T08:12:38.318Z,101317.81
2022-11-12T08:15:12.348Z,101309.97
2022-11-12T08:17:46.598Z,101313.72
2022-11-12T08:20:20.214Z,101310.81
2022-11-12T08:22:53.357Z,101306.56
2022-11-12T08:25:27.663Z,101307.91
2022-11-12T08:28:01.414Z,101313.72
2022-11-12T08:30:34.766Z,101312.19
2022-11-12T08:33:08.964Z,101305.03
2022-11-12T08:35:42.919Z,101320.34
2022-11-12T08:38:17.468Z,101318.13
2022-11-12T08:40:51.241Z,101320.16
2022-11-12T08:43:24.135Z,101323.59
2022-11-12T08:45:59.917Z,101323.78
2022-11-12T08:48:35.864Z,101324.78
2022-11-12T08:51:09.193Z,101319.50
2022-11-12T08:53:41.973Z,101323.94
2022-11-12T08:56:14.815Z,101322.84
2022-11-12T08:58:47.665Z,101323.00
2022-11-12T09:01:20.760Z,101325.56
2022-11-12T09:03:54.992Z,101328.97
2022-11-12T09:06:27.820Z,101326.69
2022-11-12T09:09:00.701Z,101326.59
2022-11-12T09:11:34.305Z,101313.69
2022-11-12T09:14:07.276Z,101321.38
2022-11-12T09:16:40.903Z,101323.84
2022-11-12T09:19:15.279Z,101321.50
2022-11-12T09:21:48.801Z,101312.53
2022-11-12T09:24:21.604Z,101304.88
2022-11-12T09:26:54.768Z,101307.91
2022-11-12T09:29:27.632Z,101310.97
2022-11-12T09:32:00.786Z,101315.72
2022-11-12T09:34:35.940Z,101324.06
2022-11-12T09:37:08.841Z,101322.72
2022-11-12T09:39:41.662Z,101319.34
2022-11-12T09:42:18.804Z,101322.75
2022-11-12T09:45:00.065Z,101326.00
2022-11-12T09:47:38.022Z,101320.59
2022-11-12T09:50:21.385Z,101328.50
2022-11-12T09:53:13.580Z,101325.47
2022-11-12T09:55:49.367Z,101324.84
2022-11-12T09:58:22.449Z,101335.56
2022-11-12T10:00:57.761Z,101342.91
2022-11-12T10:03:38.586Z,101342.47
2022-11-12T10:06:19.410Z,101343.47
2022-11-12T10:08:59.056Z,101348.75
2022-11-12T10:12:17.146Z,101342.25
2022-11-12T10:15:32.824Z,101348.78
2022-11-12T10:18:10.871Z,101337.88
2022-11-12T10:20:51.676Z,101348.09
2022-11-12T10:23:30.623Z,101356.13
2022-11-12T10:26:13.456Z,101358.88
2022-11-12T10:28:49.356Z,101351.56
2022-11-12T10:31:23.266Z,101373.88
2022-11-12T10:34:15.588Z,101368.56
2022-11-12T10:36:55.287Z,101364.78
2022-11-12T10:39:35.726Z,101360.69
2022-11-12T10:42:11.374Z,101354.56
2022-11-12T10:44:45.293Z,101350.56
2022-11-12T10:47:26.267Z,101363.81
2022-11-12T10:50:16.537Z,101357.81
2022-11-12T10:52:58.311Z,101351.03
2022-11-12T10:55:34.532Z,101355.63
2022-11-12T10:58:16.776Z,101352.16
2022-11-12T11:00:55.994Z,101328.47
2022-11-12T11:03:32.455Z,101341.69
2022-11-12T11:06:08.300Z,101333.16
2022-11-12T11:08:44.315Z,101330.69
2022-11-12T11:11:25.999Z,101328.47
2022-11-12T11:14:19.680Z,101312.50
2022-11-12T11:16:54.871Z,101316.00
2022-11-12T11:19:36.886Z,101317.44
2022-11-12T11:22:31.225Z,101325.66
2022-11-12T11:25:21.574Z,101307.59
2022-11-12T11:28:19.819Z,101310.91
2022-11-12T11:31:04.626Z,101297.47
2022-11-12T11:33:46.162Z,101295.66
2022-11-12T11:36:25.693Z,101282.00
2022-11-12T11:39:05.237Z,101291.38
2022-11-12T11:41:55.048Z,101287.50
2022-11-12T11:44:41.747Z,101306.00
2022-11-12T11:47:50.535Z,101294.88
2022-11-12T11:50:29.254Z,101288.44
2022-11-12T11:53:14.715Z,101281.56
2022-11-12T11:55:55.466Z,101267.19
2022-11-12T11:58:50.266Z,101273.47
2022-11-12T12:01:32.373Z,101264.47
2022-11-12T12:04:25.390Z,101260.03
2022-11-12T12:07:15.271Z,101255.16
2022-11-12T12:09:56.793Z,101254.97
2022-11-12T12:12:46.514Z,101249.56
2022-11-12T12:15:48.784Z,101240.38
2022-11-12T12:18:35.493Z,101244.94
2022-11-12T12:21:14.563Z,101257.66
2022-11-12T12:23:51.447Z,101260.88
2022-11-12T12:26:28.065Z,101242.16
2022-11-12T12:29:07.911Z,101246.03
2022-11-12T12:31:47.178Z,101242.97
2022-11-12T12:34:28.366Z,101228.28
2022-11-12T12:37:09.383Z,101231.25
2022-11-12T12:39:50.979Z,101232.72
2022-11-12T12:42:32.262Z,101236.81
2022-11-12T12:45:25.931Z,101238.72
2022-11-12T12:48:00.624Z,101234.97
2022-11-12T12:50:38.139Z,101240.59
2022-11-12T12:53:20.408Z,101232.00
2022-11-12T12:55:54.547Z,101233.00
2022-11-12T12:58:30.366Z,101226.69
2022-11-12T13:01:08.289Z,101226.38
2022-11-12T13:03:54.645Z,101226.38
2022-11-12T13:06:33.161Z,101222.13
2022-11-12T13:09:09.574Z,101219.56
2022-11-12T13:12:08.267Z,101224.72
2022-11-12T13:15:13.966Z,101227.09
2022-11-12T13:17:52.647Z,101229.59
2022-11-12T13:20:42.179Z,101228.56
2022-11-12T13:24:06.353Z,101221.41
2022-11-12T13:26:45.634Z,101213.88
2022-11-12T13:29:46.742Z,101216.69
2022-11-12T13:32:43.835Z,101209.22
2022-11-12T13:35:26.222Z,101217.16
2022-11-12T13:38:03.083Z,101211.03
2022-11-12T13:40:45.240Z,101200.59
2022-11-12T13:43:27.986Z,101206.34
2022-11-12T13:46:18.730Z,101203.28
2022-11-12T13:48:59.849Z,101198.31
2022-11-12T13:51:43.150Z,101193.00
2022-11-12T13:54:37.616Z,101196.84
2022-11-12T13:57:28.964Z,101200.38
2022-11-12T14:00:29.063Z,101194.72
2022-11-12T14:03:05.516Z,101192.47
2022-11-12T14:05:39.394Z,101184.03
2022-11-12T14:08:53.726Z,101181.91
2022-11-12T14:11:40.130Z,101184.16
2022-11-12T14:14:29.048Z,101183.38
2022-11-12T14:17:22.413Z,101183.53
2022-11-12T14:20:20.610Z,101176.09
2022-11-12T14:22:55.819Z,101170.00
2022-11-12T14:25:29.546Z,101167.53
2022-11-12T14:28:03.265Z,101168.25
2022-11-12T14:30:46.100Z,101166.97
2022-11-12T14:33:22.529Z,101157.06
2022-11-12T14:36:01.625Z,101161.41
2022-11-12T14:38:40.206Z,101161.44
2022-11-12T14:41:21.432Z,101145.63
2022-11-12T14:44:11.558Z,101147.25
2022-11-12T14:46:50.051Z,101152.44
2022-11-12T14:49:29.814Z,101143.09
2022-11-12T14:52:09.430Z,101135.34
2022-11-12T14:54:49.687Z,101136.00
2022-11-12T14:57:27.835Z,101140.72
2022-11-12T15:00:01.017Z,101136.03
2022-11-12T15:02:50.281Z,101138.38
2022-11-12T15:05:28.979Z,101147.97
2022-11-12T15:08:05.167Z,101138.19
2022-11-12T15:10:40.502Z,101127.81
2022-11-12T15:13:17.181Z,101131.81
2022-11-12T15:15:53.736Z,101131.69
2022-11-12T15:18:30.407Z,101134.72
2022-11-12T15:21:14.658Z,101135.09
2022-11-12T15:23:49.267Z,101136.22
2022-11-12T15:26:27.551Z,101148.22
2022-11-12T15:29:00.889Z,101135.66
2022-11-12T15:31:49.507Z,101128.59
2022-11-12T15:34:33.560Z,101124.13
2022-11-12T15:37:09.611Z,101116.91
2022-11-12T15:39:45.668Z,101099.47
2022-11-12T15:42:25.745Z,101100.94
2022-11-12T15:45:01.126Z,101101.31
2022-11-12T15:47:34.119Z,101105.66
2022-11-12T15:50:17.690Z,101102.44
2022-11-12T15:52:52.130Z,101114.59
2022-11-12T15:55:25.272Z,101111.75
2022-11-12T15:57:58.111Z,101098.44
2022-11-12T16:00:33.823Z,101094.38
2022-11-12T16:03:16.094Z,101088.34
2022-11-12T16:05:51.198Z,101091.44
2022-11-12T16:08:25.004Z,101091.81
2022-11-12T16:10:58.714Z,101090.28
2022-11-12T16:13:35.108Z,101092.34
2022-11-12T16:16:08.603Z,101102.00
2022-11-12T16:18:42.420Z,101095.56
2022-11-12T16:21:20.843Z,101093.69
2022-11-12T16:23:55.023Z,101081.78
2022-11-12T16:26:33.483Z,101086.00
2022-11-12T16:29:13.644Z,101083.03
2022-11-12T16:31:47.182Z,101092.88
2022-11-12T16:34:20.385Z,101083.66
2022-11-12T16:36:55.599Z,101076.38
2022-11-12T16:39:28.691Z,101072.06
2022-11-12T16:42:01.881Z,101091.00
2022-11-12T16:44:35.612Z,101077.81
2022-11-12T16:47:12.088Z,101078.88
2022-11-12T16:49:45.790Z,101081.88
2022-11-12T16:52:20.168Z,101083.00
2022-11-12T16:54:53.259Z,101079.00
2022-11-12T16:57:26.083Z,101080.88
2022-11-12T16:59:59.884Z,101087.56
2022-11-12T17:02:33.614Z,101100.44
2022-11-12T17:05:09.434Z,101085.50
2022-11-12T17:07:43.813Z,101094.38
2022-11-12T17:10:23.549Z,101093.81
2022-11-12T17:12:56.369Z,101086.38
2022-11-12T17:15:30.129Z,101086.66
2022-11-12T17:18:03.747Z,101098.44
2022-11-12T17:20:37.356Z,101090.00
2022-11-12T17:23:12.391Z,101077.19
2022-11-12T17:25:45.722Z,101074.47
2022-11-12T17:28:18.545Z,101067.53
2022-11-12T17:30:51.460Z,101061.88
2022-11-12T17:33:24.434Z,101063.28
2022-11-12T17:36:03.149Z,101053.94
2022-11-12T17:38:37.975Z,101057.75
2022-11-12T17:41:11.835Z,101051.00
2022-11-12T17:43:44.646Z,101052.06
2022-11-12T17:46:17.458Z,101050.00
2022-11-12T17:48:51.212Z,101035.28
2022-11-12T17:51:27.031Z,101035.22
2022-11-12T17:54:01.257Z,101039.91
2022-11-12T17:56:37.070Z,101036.44
2022-11-12T17:59:10.822Z,101028.59
2022-11-12T18:01:43.681Z,101029.16
2022-11-12T18:04:17.312Z,101035.28
2022-11-12T18:06:50.333Z,101026.25
2022-11-12T18:09:24.633Z,101036.09
2022-11-12T18:11:59.139Z,101027.69
2022-11-12T18:14:33.075Z,101033.16
2022-11-12T18:17:05.898Z,101036.66
2022-11-12T18:19:38.675Z,101029.19
2022-11-12T18:22:13.006Z,101032.59
2022-11-12T18:24:48.551Z,101032.78
2022-11-12T18:27:22.265Z,101039.59
2022-11-12T18:29:55.705Z,101036.47
2022-11-12T18:32:29.321Z,101044.50
2022-11-12T18:35:02.863Z,101036.91
2022-11-12T18:37:36.610Z,101039.75
2022-11-12T18:40:11.614Z,101036.63
2022-11-12T18:42:45.413Z,101049.34
2022-11-12T18:45:19.088Z,101050.59
2022-11-12T18:47:51.942Z,101046.50
2022-11-12T18:50:24.819Z,101045.28
2022-11-12T18:52:57.633Z,101041.19
2022-11-12T18:55:31.806Z,101042.88
2022-11-12T18:58:05.497Z,101035.03
2022-11-12T19:00:38.444Z,101041.13
2022-11-12T19:03:12.163Z,101034.38
2022-11-12T19:05:45.737Z,101033.50
2022-11-12T19:08:19.935Z,101039.47
2022-11-12T19:10:59.638Z,101034.38
2022-11-12T19:13:33.958Z,101039.28
2022-11-12T19:16:11.908Z,101030.50
2022-11-12T19:18:45.749Z,101034.00
2022-11-12T19:21:21.266Z,101031.91
2022-11-12T19:23:55.486Z,101031.81
2022-11-12T19:26:29.867Z,101021.72
2022-11-12T19:29:03.795Z,101030.13
2022-11-12T19:31:36.904Z,101022.50
2022-11-12T19:34:10.900Z,101023.16
2022-11-12T19:36:44.373Z,101028.72
2022-11-12T19:39:17.168Z,101019.75
2022-11-12T19:41:52.244Z,101019.56
2022-11-12T19:44:25.871Z,101029.56
2022-11-12T19:46:59.068Z,101021.94
2022-11-12T19:49:32.811Z,101029.97
2022-11-12T19:52:06.607Z,101026.53
2022-11-12T19:54:40.246Z,101032.41
2022-11-12T19:57:16.336Z,101034.66
2022-11-12T19:59:50.053Z,101037.59
2022-11-12T20:02:23.597Z,101032.59
2022-11-12T20:04:57.361Z,101033.16
2022-11-12T20:07:30.215Z,101034.38
2022-11-12T20:10:03.118Z,101030.88
2022-11-12T20:12:40.338Z,101030.88
2022-11-12T20:15:14.125Z,101041.53
2022-11-12T20:17:47.693Z,101042.97
2022-11-12T20:20:20.722Z,101033.16
2022-11-12T20:22:53.531Z,101037.22
2022-11-12T20:25:26.815Z,101033.25
2022-11-12T20:28:01.958Z,101034.56
2022-11-12T20:30:35.062Z,101039.59
2022-11-12T20:33:08.687Z,101031.47
2022-11-12T20:35:41.620Z,101034.88
2022-11-12T20:38:14.686Z,101038.72
2022-11-12T20:40:47.543Z,101035.34
2022-11-12T20:43:26.567Z,101041.91
2022-11-12T20:46:03.444Z,101036.75
2022-11-12T20:48:41.509Z,101034.66
2022-11-12T20:51:24.345Z,101033.75
2022-11-12T20:54:00.701Z,101031.25
2022-11-12T20:56:35.645Z,101035.50
2022-11-12T20:59:11.227Z,101051.75
2022-11-12T21:01:44.481Z,101045.25
2022-11-12T21:04:18.163Z,101038.25
2022-11-12T21:06:51.319Z,101049.19
2022-11-12T21:09:25.177Z,101054.28
2022-11-12T21:11:59.152Z,101055.19
2022-11-12T21:14:34.170Z,101070.25
2022-11-12T21:17:07.944Z,101069.72
2022-11-12T21:19:41.384Z,101073.75
2022-11-12T21:22:15.550Z,101077.25
2022-11-12T21:24:48.727Z,101081.19
2022-11-12T21:27:22.299Z,101073.28
2022-11-12T21:29:57.386Z,101080.47
2022-11-12T21:32:30.252Z,101083.75
2022-11-12T21:35:03.049Z,101087.31
2022-11-12T21:37:36.224Z,101091.16
2022-11-12T21:40:10.471Z,101085.69
2022-11-12T21:42:44.262Z,101079.47
2022-11-12T21:45:19.430Z,101088.91
2022-11-12T21:47:53.223Z,101086.50
2022-11-12T21:50:26.800Z,101094.25
2022-11-12T21:53:00.488Z,101088.72
2022-11-12T21:55:34.070Z,101088.13
2022-11-12T21:58:07.561Z,101097.47
2022-11-12T22:00:42.975Z,101087.84
2022-11-12T22:03:16.772Z,101092.38
2022-11-12T22:05:50.464Z,101082.22
2022-11-12T22:08:24.123Z,101083.63
2022-11-12T22:11:02.542Z,101081.56
2022-11-12T22:13:36.481Z,101085.81
2022-11-12T22:16:12.525Z,101075.41
2022-11-12T22:18:48.090Z,101077.78
2022-11-12T22:21:23.701Z,101081.56
2022-11-12T22:23:58.436Z,101083.28
2022-11-12T22:26:31.748Z,101082.91
2022-11-12T22:29:06.422Z,101094.75
2022-11-12T22:31:41.390Z,101080.81
2022-11-12T22:34:15.345Z,101075.34
2022-11-12T22:36:48.967Z,101078.34
2022-11-12T22:39:22.669Z,101076.28
2022-11-12T22:41:56.201Z,101070.88
2022-11-12T22:44:30.261Z,101072.56
2022-11-12T22:47:05.322Z,101065.72
2022-11-12T22:49:38.925Z,101055.69
2022-11-12T22:52:11.834Z,101054.94
2022-11-12T22:54:45.677Z,101053.53
2022-11-12T22:57:19.268Z,101057.13
2022-11-12T22:59:52.960Z,101052.88
2022-11-12T23:02:28.025Z,101049.72
2022-11-12T23:05:00.929Z,101054.81
2022-11-12T23:07:34.557Z,101059.50
2022-11-12T23:10:09.542Z,101051.97
2022-11-12T23:12:43.136Z,101051.00
2022-11-12T23:15:16.962Z,101053.31
2022-11-12T23:17:52.127Z,101059.88
2022-11-12T23:20:25.503Z,101061.63
2022-11-12T23:22:59.083Z,101056.53
2022-11-12T23:25:35.301Z,101057.09
2022-11-12T23:28:08.228Z,101056.00
2022-11-12T23:30:41.913Z,101063.69
2022-11-12T23:33:17.126Z,101057.94
2022-11-12T23:35:50.858Z,101050.78
2022-11-12T23:38:24.463Z,101038.50
2022-11-12T23:40:57.546Z,101043.13
2022-11-12T23:43:31.346Z,101035.94
2022-11-12T23:46:05.505Z,101028.97
2022-11-12T23:48:39.874Z,101025.88
2022-11-12T23:51:15.367Z,101022.03
2022-11-12T23:53:49.630Z,101031.63
2022-11-12T23:56:23.438Z,101027.38
2022-11-12T23:58:57.179Z,101023.53
